createdAt,value
2019-02-08T00:00:42.799Z,4.00
2019-02-08T00:03:10.739Z,3.90
2019-02-08T00:05:38.779Z,4.00
2019-02-08T00:08:06.806Z,4.00
2019-02-08T00:10:34.803Z,4.00
2019-02-08T00:13:02.731Z,4.00
2019-02-08T00:15:30.646Z,4.00
2019-02-08T00:17:58.636Z,4.10
2019-02-08T00:20:26.674Z,4.10
2019-02-08T00:22:54.626Z,4.10
2019-02-08T00:25:22.799Z,4.00
2019-02-08T00:27:50.812Z,4.00
2019-02-08T00:30:20.264Z,4.00
2019-02-08T00:32:48.267Z,4.00
2019-02-08T00:35:16.268Z,4.00
2019-02-08T00:37:44.231Z,4.10
2019-02-08T00:40:12.653Z,4.00
2019-02-08T00:42:40.669Z,3.90
2019-02-08T00:45:09.168Z,4.00
2019-02-08T00:47:37.315Z,3.90
2019-02-08T00:50:06.474Z,4.00
2019-02-08T00:52:34.463Z,4.00
2019-02-08T00:55:02.392Z,4.00
2019-02-08T00:57:30.370Z,4.10
2019-02-08T00:59:58.258Z,4.00
2019-02-08T01:02:26.301Z,3.90
2019-02-08T01:04:54.603Z,3.90
2019-02-08T01:07:22.566Z,3.90
2019-02-08T01:09:50.484Z,3.80
2019-02-08T01:12:18.400Z,3.80
2019-02-08T01:14:46.427Z,3.80
2019-02-08T01:17:14.313Z,3.90
2019-02-08T01:19:42.275Z,3.80
2019-02-08T01:22:10.806Z,3.80
2019-02-08T01:24:38.781Z,3.80
2019-02-08T01:27:06.758Z,3.80
2019-02-08T01:29:34.707Z,3.80
2019-02-08T01:32:02.632Z,3.80
2019-02-08T01:34:30.516Z,3.70
2019-02-08T01:36:58.410Z,3.60
2019-02-08T01:39:26.272Z,3.60
2019-02-08T01:41:54.163Z,3.70
2019-02-08T01:44:22.077Z,3.70
2019-02-08T01:46:50.127Z,3.70
2019-02-08T01:49:18.500Z,3.70
2019-02-08T01:51:46.436Z,3.60
2019-02-08T01:54:14.303Z,3.70
2019-02-08T01:56:42.259Z,3.70
2019-02-08T01:59:10.332Z,3.60
2019-02-08T02:01:38.348Z,3.60
2019-02-08T02:04:06.462Z,3.60
2019-02-08T02:06:34.429Z,3.70
2019-02-08T02:09:02.686Z,3.70
2019-02-08T02:11:30.664Z,3.70
2019-02-08T02:14:01.507Z,3.60
2019-02-08T02:16:29.572Z,3.60
2019-02-08T02:18:57.468Z,3.60
2019-02-08T02:21:25.528Z,3.60
2019-02-08T02:23:56.217Z,3.60
2019-02-08T02:26:23.059Z,3.60
2019-02-08T02:28:50.997Z,3.70
2019-02-08T02:31:18.939Z,3.60
2019-02-08T02:33:47.017Z,3.60
2019-02-08T02:36:14.905Z,3.70
2019-02-08T02:38:42.823Z,3.60
2019-02-08T02:41:10.838Z,3.50
2019-02-08T02:43:38.838Z,3.50
2019-02-08T02:46:06.800Z,3.50
2019-02-08T02:48:34.905Z,3.50
2019-02-08T02:51:02.857Z,3.50
2019-02-08T02:53:30.738Z,3.50
2019-02-08T02:55:58.615Z,3.50
2019-02-08T02:58:26.590Z,3.50
2019-02-08T03:00:54.568Z,3.50
2019-02-08T03:03:22.552Z,3.50
2019-02-08T03:05:50.416Z,3.40
2019-02-08T03:08:18.440Z,3.40
2019-02-08T03:10:46.638Z,3.40
2019-02-08T03:13:15.565Z,3.40
2019-02-08T03:15:43.453Z,3.30
2019-02-08T03:18:11.446Z,3.40
2019-02-08T03:20:39.411Z,3.40
2019-02-08T03:23:07.399Z,3.40
2019-02-08T03:25:35.387Z,3.40
2019-02-08T03:28:04.669Z,3.40
2019-02-08T03:30:37.341Z,3.40
2019-02-08T03:33:05.681Z,3.40
2019-02-08T03:35:33.631Z,3.30
2019-02-08T03:38:01.626Z,3.40
2019-02-08T03:40:29.687Z,3.40
2019-02-08T03:42:57.702Z,3.40
2019-02-08T03:45:27.754Z,3.40
2019-02-08T03:47:55.744Z,3.40
2019-02-08T03:50:24.054Z,3.30
2019-02-08T03:52:52.067Z,3.30
2019-02-08T03:55:20.353Z,3.40
2019-02-08T03:57:48.414Z,3.40
2019-02-08T04:00:17.600Z,3.40
2019-02-08T04:02:45.558Z,3.40
2019-02-08T04:05:13.751Z,3.40
2019-02-08T04:07:41.839Z,3.30
2019-02-08T04:10:10.772Z,3.30
2019-02-08T04:12:38.695Z,3.40
2019-02-08T04:15:07.667Z,3.40
2019-02-08T04:17:35.553Z,3.40
2019-02-08T04:20:04.405Z,3.30
2019-02-08T04:22:32.345Z,3.30
2019-02-08T04:25:00.358Z,3.30
2019-02-08T04:27:28.330Z,3.40
2019-02-08T04:29:56.297Z,3.30
2019-02-08T04:32:24.197Z,3.30
2019-02-08T04:34:52.061Z,3.40
2019-02-08T04:37:19.929Z,3.40
2019-02-08T04:39:47.994Z,3.40
2019-02-08T04:42:15.915Z,3.50
2019-02-08T04:44:43.811Z,3.50
2019-02-08T04:47:11.694Z,3.50
2019-02-08T04:49:39.617Z,3.60
2019-02-08T04:52:07.543Z,3.60
2019-02-08T04:54:38.460Z,3.60
2019-02-08T04:57:05.177Z,3.60
2019-02-08T04:59:33.057Z,3.60
2019-02-08T05:02:01.011Z,3.60
2019-02-08T05:04:28.979Z,3.50
2019-02-08T05:06:56.887Z,3.50
2019-02-08T05:09:24.925Z,3.50
2019-02-08T05:11:52.918Z,3.40
2019-02-08T05:14:20.857Z,3.50
2019-02-08T05:16:48.743Z,3.40
2019-02-08T05:19:16.666Z,3.40
2019-02-08T05:21:44.592Z,3.50
2019-02-08T05:24:12.583Z,3.40
2019-02-08T05:26:40.588Z,3.50
2019-02-08T05:29:08.515Z,3.50
2019-02-08T05:31:36.468Z,3.50
2019-02-08T05:34:04.457Z,3.40
2019-02-08T05:36:32.492Z,3.40
2019-02-08T05:39:00.380Z,3.40
2019-02-08T05:41:28.333Z,3.50
2019-02-08T05:43:56.243Z,3.40
2019-02-08T05:46:24.145Z,3.40
2019-02-08T05:48:52.112Z,3.50
2019-02-08T05:51:20.029Z,3.60
2019-02-08T05:53:47.975Z,3.50
2019-02-08T05:56:15.874Z,3.50
2019-02-08T05:58:43.831Z,3.50
2019-02-08T06:01:11.692Z,3.60
2019-02-08T06:03:39.650Z,3.50
2019-02-08T06:06:07.606Z,3.50
2019-02-08T06:08:35.655Z,3.60
2019-02-08T06:11:03.833Z,3.50
2019-02-08T06:13:31.906Z,3.50
2019-02-08T06:15:59.839Z,3.50
2019-02-08T06:18:27.816Z,3.50
2019-02-08T06:20:55.795Z,3.50
2019-02-08T06:23:23.915Z,3.40
2019-02-08T06:25:52.267Z,3.50
2019-02-08T06:28:20.352Z,3.50
2019-02-08T06:30:48.367Z,3.40
2019-02-08T06:33:16.325Z,3.50
2019-02-08T06:35:44.286Z,3.40
2019-02-08T06:38:12.361Z,3.40
2019-02-08T06:40:41.582Z,3.40
2019-02-08T06:43:09.467Z,3.40
2019-02-08T06:45:37.450Z,3.40
2019-02-08T06:48:06.081Z,3.50
2019-02-08T06:50:34.088Z,3.50
2019-02-08T06:53:02.071Z,3.50
2019-02-08T06:55:30.018Z,3.50
2019-02-08T06:58:17.273Z,3.60
2019-02-08T07:00:55.696Z,3.60
2019-02-08T07:03:40.223Z,3.60
2019-02-08T07:06:29.699Z,3.60
2019-02-08T07:09:06.383Z,3.70
2019-02-08T07:11:50.799Z,3.70
2019-02-08T07:14:42.158Z,3.60
2019-02-08T07:17:16.060Z,3.60
2019-02-08T07:19:57.098Z,3.70
2019-02-08T07:22:43.922Z,3.70
2019-02-08T07:25:31.148Z,3.80
2019-02-08T07:28:08.953Z,3.70
2019-02-08T07:31:02.986Z,3.70
2019-02-08T07:33:50.158Z,3.80
2019-02-08T07:36:29.296Z,3.80
2019-02-08T07:39:11.083Z,3.80
2019-02-08T07:41:57.416Z,3.80
2019-02-08T07:44:34.753Z,3.90
2019-02-08T07:47:10.942Z,3.90
2019-02-08T07:49:50.758Z,3.90
2019-02-08T07:52:43.773Z,4.00
2019-02-08T07:55:30.892Z,4.10
2019-02-08T07:58:16.371Z,4.10
2019-02-08T08:01:03.301Z,4.20
2019-02-08T08:03:51.027Z,4.30
2019-02-08T08:06:54.463Z,4.40
2019-02-08T08:09:57.009Z,4.50
2019-02-08T08:12:32.843Z,4.70
2019-02-08T08:15:15.357Z,4.90
2019-02-08T08:18:01.315Z,5.00
2019-02-08T08:20:44.753Z,5.10
2019-02-08T08:23:33.150Z,5.20
2019-02-08T08:26:24.559Z,5.20
2019-02-08T08:29:17.826Z,5.30
2019-02-08T08:32:02.113Z,5.40
2019-02-08T08:34:35.232Z,5.50
2019-02-08T08:37:15.894Z,5.60
2019-02-08T08:40:01.483Z,5.80
2019-02-08T08:42:40.730Z,5.90
2019-02-08T08:45:19.560Z,5.90
2019-02-08T08:47:55.992Z,6.00
2019-02-08T08:50:35.466Z,6.00
2019-02-08T08:53:25.370Z,5.80
2019-02-08T08:56:18.820Z,6.00
2019-02-08T08:59:11.843Z,5.90
2019-02-08T09:01:57.990Z,5.70
2019-02-08T09:04:51.047Z,5.80
2019-02-08T09:07:44.063Z,5.80
2019-02-08T09:10:29.966Z,6.00
2019-02-08T09:13:16.031Z,6.20
2019-02-08T09:16:21.679Z,6.50
2019-02-08T09:19:11.581Z,6.60
2019-02-08T09:21:47.495Z,6.80
2019-02-08T09:24:24.937Z,6.60
2019-02-08T09:27:10.878Z,6.70
2019-02-08T09:29:58.003Z,6.60
2019-02-08T09:32:39.091Z,6.60
2019-02-08T09:35:24.781Z,6.60
2019-02-08T09:38:10.788Z,6.60
2019-02-08T09:40:58.005Z,6.60
2019-02-08T09:43:54.181Z,6.60
2019-02-08T09:46:46.158Z,6.60
2019-02-08T09:49:39.111Z,6.80
2019-02-08T09:52:25.057Z,6.90
2019-02-08T09:55:14.010Z,7.00
2019-02-08T09:58:05.462Z,7.00
2019-02-08T10:00:51.129Z,7.00
2019-02-08T10:03:28.301Z,6.90
2019-02-08T10:06:02.327Z,7.00
2019-02-08T10:08:48.140Z,7.00
2019-02-08T10:11:31.047Z,7.00
2019-02-08T10:14:20.786Z,7.10
2019-02-08T10:17:02.398Z,7.20
2019-02-08T10:19:59.327Z,7.30
2019-02-08T10:22:49.524Z,7.50
2019-02-08T10:25:29.727Z,7.70
2019-02-08T10:28:15.340Z,7.90
2019-02-08T10:31:08.777Z,8.00
2019-02-08T10:33:50.773Z,8.40
2019-02-08T10:36:29.122Z,9.60
2019-02-08T10:39:26.768Z,10.60
2019-02-08T10:42:19.998Z,11.10
2019-02-08T10:45:05.953Z,11.30
2019-02-08T10:47:59.265Z,11.10
2019-02-08T10:50:46.609Z,10.50
2019-02-08T10:53:28.044Z,10.30
2019-02-08T10:56:20.382Z,10.10
2019-02-08T10:59:07.877Z,10.20
2019-02-08T11:02:10.625Z,10.50
2019-02-08T11:04:52.898Z,10.60
2019-02-08T11:07:52.182Z,10.40
2019-02-08T11:10:51.414Z,10.10
2019-02-08T11:13:37.533Z,10.10
2019-02-08T11:16:23.936Z,10.20
2019-02-08T11:19:02.703Z,10.00
2019-02-08T11:21:30.647Z,9.90
2019-02-08T11:23:58.759Z,10.00
2019-02-08T11:26:26.768Z,10.00
2019-02-08T11:28:54.721Z,10.00
2019-02-08T11:31:22.657Z,10.00
2019-02-08T11:33:50.655Z,10.00
2019-02-08T11:36:18.636Z,10.10
2019-02-08T11:38:52.708Z,10.30
2019-02-08T11:41:20.795Z,10.60
2019-02-08T11:43:48.783Z,11.00
2019-02-08T11:46:16.692Z,11.20
2019-02-08T11:48:44.694Z,10.80
2019-02-08T11:51:12.575Z,10.50
2019-02-08T11:53:40.579Z,10.30
2019-02-08T11:56:08.570Z,9.90
2019-02-08T11:58:36.532Z,9.90
2019-02-08T12:01:05.072Z,10.00
2019-02-08T12:03:33.021Z,10.20
2019-02-08T12:06:01.954Z,10.20
2019-02-08T12:08:29.979Z,10.20
2019-02-08T12:10:57.932Z,10.00
2019-02-08T12:13:25.843Z,10.00
2019-02-08T12:15:53.770Z,10.00
2019-02-08T12:18:21.775Z,10.00
2019-02-08T12:20:49.724Z,9.90
2019-02-08T12:23:17.714Z,10.00
2019-02-08T12:25:45.626Z,9.90
2019-02-08T12:28:13.634Z,10.00
2019-02-08T12:30:41.921Z,10.20
2019-02-08T12:33:09.903Z,10.30
2019-02-08T12:35:37.798Z,10.10
2019-02-08T12:38:05.727Z,10.10
2019-02-08T12:40:33.631Z,9.90
2019-02-08T12:43:01.602Z,9.80
2019-02-08T12:45:29.557Z,9.80
2019-02-08T12:47:57.427Z,9.70
2019-02-08T12:50:25.421Z,9.70
2019-02-08T12:52:53.436Z,9.70
2019-02-08T12:55:21.428Z,9.90
2019-02-08T12:57:49.300Z,9.90
2019-02-08T13:00:18.023Z,9.80
2019-02-08T13:02:45.995Z,9.70
2019-02-08T13:05:13.961Z,9.60
2019-02-08T13:07:41.863Z,9.50
2019-02-08T13:10:10.586Z,9.60
2019-02-08T13:12:38.585Z,9.60
2019-02-08T13:15:07.169Z,9.50
2019-02-08T13:17:35.131Z,9.40
2019-02-08T13:20:03.116Z,9.50
2019-02-08T13:22:31.095Z,9.50
2019-02-08T13:24:59.046Z,9.80
2019-02-08T13:27:27.023Z,9.90
2019-02-08T13:29:54.899Z,10.00
2019-02-08T13:32:22.790Z,10.10
2019-02-08T13:34:50.732Z,9.90
2019-02-08T13:37:18.748Z,10.10
2019-02-08T13:39:46.741Z,10.30
2019-02-08T13:42:14.677Z,10.20
2019-02-08T13:44:42.617Z,10.00
2019-02-08T13:47:11.018Z,10.10
2019-02-08T13:49:39.298Z,9.90
2019-02-08T13:52:07.375Z,9.80
2019-02-08T13:54:35.481Z,9.70
2019-02-08T13:57:03.861Z,9.80
2019-02-08T13:59:31.804Z,9.80
2019-02-08T14:01:59.702Z,9.90
2019-02-08T14:04:27.654Z,10.00
2019-02-08T14:06:55.585Z,10.00
2019-02-08T14:09:23.510Z,10.00
2019-02-08T14:11:51.444Z,10.00
2019-02-08T14:14:19.423Z,9.90
2019-02-08T14:16:47.382Z,9.90
2019-02-08T14:19:15.307Z,9.80
2019-02-08T14:21:43.262Z,9.80
2019-02-08T14:24:11.163Z,10.00
2019-02-08T14:26:39.128Z,10.10
2019-02-08T14:29:07.070Z,10.00
2019-02-08T14:31:34.986Z,10.20
2019-02-08T14:34:02.960Z,10.10
2019-02-08T14:36:31.069Z,10.00
2019-02-08T14:38:59.044Z,9.90
2019-02-08T14:41:27.078Z,9.70
2019-02-08T14:43:54.992Z,9.70
2019-02-08T14:46:22.912Z,9.70
2019-02-08T14:48:50.978Z,9.60
2019-02-08T14:51:18.989Z,9.50
2019-02-08T14:53:46.925Z,9.50
2019-02-08T14:56:14.830Z,9.60
2019-02-08T14:58:42.789Z,9.50
2019-02-08T15:01:10.793Z,9.50
2019-02-08T15:03:38.748Z,9.30
2019-02-08T15:06:06.741Z,9.30
2019-02-08T15:08:34.727Z,9.30
2019-02-08T15:11:02.755Z,9.20
2019-02-08T15:13:30.639Z,9.20
2019-02-08T15:15:58.539Z,9.20
2019-02-08T15:18:26.617Z,9.20
2019-02-08T15:20:54.620Z,9.10
2019-02-08T15:23:22.650Z,9.20
2019-02-08T15:25:50.599Z,9.10
2019-02-08T15:28:18.562Z,9.10
2019-02-08T15:30:46.459Z,9.00
2019-02-08T15:33:14.426Z,9.10
2019-02-08T15:35:42.687Z,9.10
2019-02-08T15:38:10.631Z,9.10
2019-02-08T15:40:45.994Z,9.00
2019-02-08T15:43:14.388Z,9.10
2019-02-08T15:45:43.480Z,8.90
2019-02-08T15:48:11.439Z,8.90
2019-02-08T15:50:39.475Z,8.90
2019-02-08T15:53:07.751Z,8.90
2019-02-08T15:55:36.273Z,8.90
2019-02-08T15:58:04.756Z,8.90
2019-02-08T16:00:32.942Z,8.90
2019-02-08T16:03:00.970Z,8.90
2019-02-08T16:05:29.401Z,8.90
2019-02-08T16:07:57.412Z,8.80
2019-02-08T16:10:25.538Z,8.80
2019-02-08T16:12:53.423Z,8.80
2019-02-08T16:15:22.296Z,8.90
2019-02-08T16:17:50.762Z,8.90
2019-02-08T16:20:19.969Z,8.90
2019-02-08T16:22:48.041Z,8.80
2019-02-08T16:25:16.175Z,8.80
2019-02-08T16:27:44.151Z,8.80
2019-02-08T16:30:13.868Z,8.80
2019-02-08T16:32:41.739Z,8.90
2019-02-08T16:35:10.237Z,8.90
2019-02-08T16:37:38.291Z,8.90
2019-02-08T16:40:06.828Z,8.90
2019-02-08T16:42:34.825Z,9.00
2019-02-08T16:45:02.881Z,9.00
2019-02-08T16:47:30.811Z,8.90
2019-02-08T16:49:58.962Z,9.00
2019-02-08T16:52:27.029Z,8.90
2019-02-08T16:54:55.042Z,8.90
2019-02-08T16:57:23.410Z,8.90
2019-02-08T16:59:51.450Z,8.90
2019-02-08T17:02:19.374Z,8.80
2019-02-08T17:04:47.368Z,8.80
2019-02-08T17:07:15.402Z,8.90
2019-02-08T17:09:43.293Z,8.90
2019-02-08T17:12:11.322Z,8.80
2019-02-08T17:14:39.247Z,8.80
2019-02-08T17:17:07.257Z,8.70
2019-02-08T17:19:35.229Z,8.70
2019-02-08T17:22:03.150Z,8.70
2019-02-08T17:24:31.119Z,8.80
2019-02-08T17:26:59.115Z,8.70
2019-02-08T17:29:27.134Z,8.60
2019-02-08T17:31:55.049Z,8.60
2019-02-08T17:34:23.007Z,8.50
2019-02-08T17:36:51.000Z,8.50
2019-02-08T17:39:18.923Z,8.50
2019-02-08T17:41:46.969Z,8.50
2019-02-08T17:44:14.944Z,8.50
2019-02-08T17:46:42.802Z,8.40
2019-02-08T17:49:10.825Z,8.50
2019-02-08T17:51:38.778Z,8.50
2019-02-08T17:54:06.696Z,8.40
2019-02-08T17:56:34.598Z,8.50
2019-02-08T17:59:02.613Z,8.50
2019-02-08T18:01:30.490Z,8.50
2019-02-08T18:03:58.363Z,8.40
2019-02-08T18:06:26.249Z,8.40
2019-02-08T18:08:54.284Z,8.40
2019-02-08T18:11:22.263Z,8.40
2019-02-08T18:13:50.395Z,8.40
2019-02-08T18:16:18.418Z,8.40
2019-02-08T18:18:46.439Z,8.40
2019-02-08T18:21:14.512Z,8.30
2019-02-08T18:23:42.577Z,8.30
2019-02-08T18:26:10.458Z,8.20
2019-02-08T18:28:38.468Z,8.20
2019-02-08T18:31:06.516Z,8.10
2019-02-08T18:33:34.601Z,8.10
2019-02-08T18:36:02.620Z,8.00
2019-02-08T18:38:30.670Z,8.00
2019-02-08T18:40:58.659Z,8.00
2019-02-08T18:43:26.797Z,7.90
2019-02-08T18:45:54.757Z,7.90
2019-02-08T18:48:22.720Z,7.90
2019-02-08T18:50:51.613Z,7.90
2019-02-08T18:53:19.615Z,7.80
2019-02-08T18:55:47.648Z,7.70
2019-02-08T18:58:19.079Z,7.70
2019-02-08T19:00:46.200Z,7.70
2019-02-08T19:03:14.511Z,7.60
2019-02-08T19:05:42.927Z,7.60
2019-02-08T19:08:11.403Z,7.50
2019-02-08T19:10:39.693Z,7.40
2019-02-08T19:13:07.680Z,7.40
2019-02-08T19:15:35.829Z,7.40
2019-02-08T19:18:04.138Z,7.40
2019-02-08T19:20:33.087Z,7.40
2019-02-08T19:23:01.111Z,7.40
2019-02-08T19:25:30.770Z,7.40
2019-02-08T19:27:58.899Z,7.40
2019-02-08T19:30:27.975Z,7.40
2019-02-08T19:32:56.060Z,7.30
2019-02-08T19:35:23.988Z,7.30
2019-02-08T19:37:52.070Z,7.20
2019-02-08T19:40:21.375Z,7.10
2019-02-08T19:42:49.350Z,7.20
2019-02-08T19:45:18.057Z,7.20
2019-02-08T19:47:46.071Z,7.10
2019-02-08T19:50:24.061Z,7.10
2019-02-08T19:52:52.197Z,7.10
2019-02-08T19:55:20.598Z,7.10
2019-02-08T19:57:49.372Z,7.10
2019-02-08T20:00:18.549Z,7.00
2019-02-08T20:02:46.598Z,7.00
2019-02-08T20:05:16.450Z,7.00
2019-02-08T20:07:44.540Z,7.00
2019-02-08T20:10:14.159Z,7.00
2019-02-08T20:12:42.307Z,7.00
2019-02-08T20:15:11.425Z,7.00
2019-02-08T20:17:39.747Z,7.00
2019-02-08T20:20:08.035Z,7.00
2019-02-08T20:22:36.100Z,6.90
2019-02-08T20:25:05.425Z,7.00
2019-02-08T20:27:34.144Z,7.00
2019-02-08T20:30:02.313Z,7.00
2019-02-08T20:32:30.680Z,7.00
2019-02-08T20:34:59.189Z,7.00
2019-02-08T20:37:27.226Z,7.00
2019-02-08T20:39:55.441Z,7.00
2019-02-08T20:42:23.451Z,6.90
2019-02-08T20:44:51.443Z,6.90
2019-02-08T20:47:19.441Z,7.00
2019-02-08T20:49:47.544Z,7.00
2019-02-08T20:52:15.994Z,7.00
2019-02-08T20:54:44.051Z,7.00
2019-02-08T20:57:11.947Z,6.90
2019-02-08T20:59:39.971Z,6.90
2019-02-08T21:02:08.166Z,7.00
2019-02-08T21:04:36.300Z,7.00
2019-02-08T21:07:04.294Z,7.00
2019-02-08T21:09:32.431Z,7.00
2019-02-08T21:12:00.391Z,6.90
2019-02-08T21:14:28.539Z,6.90
2019-02-08T21:16:56.540Z,6.90
2019-02-08T21:19:24.692Z,6.80
2019-02-08T21:21:52.734Z,6.70
2019-02-08T21:24:20.837Z,6.80
2019-02-08T21:26:48.893Z,6.70
2019-02-08T21:29:16.820Z,6.70
2019-02-08T21:31:44.813Z,6.70
2019-02-08T21:34:12.868Z,6.70
2019-02-08T21:36:40.887Z,6.60
2019-02-08T21:39:09.050Z,6.60
2019-02-08T21:41:36.947Z,6.60
2019-02-08T21:44:05.114Z,6.50
2019-02-08T21:46:36.727Z,6.50
2019-02-08T21:49:04.804Z,6.50
2019-02-08T21:51:32.696Z,6.50
2019-02-08T21:54:00.687Z,6.40
2019-02-08T21:56:28.750Z,6.40
2019-02-08T21:58:56.699Z,6.30
2019-02-08T22:01:24.647Z,6.40
2019-02-08T22:03:52.635Z,6.40
2019-02-08T22:06:20.601Z,6.40
2019-02-08T22:08:48.592Z,6.30
2019-02-08T22:11:16.648Z,6.30
2019-02-08T22:13:44.674Z,6.30
2019-02-08T22:16:12.615Z,6.30
2019-02-08T22:18:40.712Z,6.30
2019-02-08T22:21:08.622Z,6.30
2019-02-08T22:23:36.489Z,6.20
2019-02-08T22:26:04.603Z,6.20
2019-02-08T22:28:32.495Z,6.20
2019-02-08T22:31:00.473Z,6.20
2019-02-08T22:33:28.379Z,6.10
2019-02-08T22:35:56.271Z,6.10
2019-02-08T22:38:24.173Z,6.10
2019-02-08T22:40:52.112Z,6.10
2019-02-08T22:43:20.131Z,6.00
2019-02-08T22:45:48.157Z,6.00
2019-02-08T22:48:16.048Z,6.00
2019-02-08T22:50:43.943Z,6.00
2019-02-08T22:53:11.883Z,5.90
2019-02-08T22:55:39.836Z,5.90
2019-02-08T22:58:08.131Z,5.90
2019-02-08T23:01:05.298Z,5.90
2019-02-08T23:03:34.009Z,5.90
2019-02-08T23:06:02.046Z,6.00
2019-02-08T23:08:30.159Z,5.90
2019-02-08T23:10:58.337Z,6.00
2019-02-08T23:13:26.270Z,6.00
2019-02-08T23:15:54.384Z,5.90
2019-02-08T23:18:22.311Z,5.90
2019-02-08T23:20:50.311Z,6.00
2019-02-08T23:23:18.235Z,6.00
2019-02-08T23:25:46.143Z,6.00
2019-02-08T23:28:14.080Z,6.10
2019-02-08T23:30:42.137Z,6.00
2019-02-08T23:33:10.106Z,6.10
2019-02-08T23:35:42.855Z,6.10
2019-02-08T23:38:07.767Z,6.20
2019-02-08T23:40:35.690Z,6.10
2019-02-08T23:43:03.734Z,6.20
2019-02-08T23:45:31.670Z,6.20
2019-02-08T23:47:59.591Z,6.20
2019-02-08T23:50:27.561Z,6.30
2019-02-08T23:52:55.536Z,6.30
2019-02-08T23:55:23.582Z,6.30
2019-02-08T23:57:51.541Z,6.30
